Time;durP1;ratioP1;P1;durP2;ratioP2;P2;SDS_P1;SDS_P2;PMS_P1;PMS_P2;Temp;Humidity;BMP_temperature;BMP_pressure;BME280_temperature;BME280_humidity;BME280_pressure;Samples;Min_cycle;Max_cycle;Signal;HPM_P1;HPM_P2
2023/01/06 00:01:53;;;;;;;9.02;4.00;;;;;;;10.72;100.00;101539.53;5035184;28;20047;-59
2023/01/06 00:04:19;;;;;;;9.15;3.67;;;;;;;10.72;100.00;101544.72;5034199;28;20040;-59
2023/01/06 00:06:44;;;;;;;6.72;3.72;;;;;;;10.71;100.00;101542.97;5033790;28;20067;-59
2023/01/06 00:09:10;;;;;;;9.93;3.67;;;;;;;10.72;100.00;101544.72;5033310;28;20140;-59
2023/01/06 00:11:36;;;;;;;10.88;3.80;;;;;;;10.72;100.00;101549.88;5036215;28;20822;-62
2023/01/06 00:14:02;;;;;;;9.32;3.35;;;;;;;10.73;100.00;101546.47;5034571;28;20044;-62
2023/01/06 00:16:27;;;;;;;6.65;3.40;;;;;;;10.73;100.00;101540.41;5037161;28;20041;-63
2023/01/06 00:18:56;;;;;;;5.53;3.40;;;;;;;10.75;100.00;101547.31;5034879;28;20068;-63
2023/01/06 00:21:22;;;;;;;7.05;3.08;;;;;;;10.76;100.00;101545.59;5035275;28;20040;-62
2023/01/06 00:23:47;;;;;;;4.57;2.90;;;;;;;10.76;100.00;101548.19;5030631;28;20033;-63
2023/01/06 00:26:13;;;;;;;7.18;3.50;;;;;;;10.77;100.00;101540.41;5029997;28;20048;-62
2023/01/06 00:28:38;;;;;;;5.25;2.33;;;;;;;10.77;100.00;101543.00;5031177;28;20091;-63
2023/01/06 00:31:08;;;;;;;5.78;2.10;;;;;;;10.79;100.00;101545.59;5037359;28;20684;-63
2023/01/06 00:33:34;;;;;;;3.72;1.60;;;;;;;10.77;100.00;101539.56;5038917;28;20405;-63
2023/01/06 00:36:00;;;;;;;2.60;1.42;;;;;;;10.75;100.00;101547.31;5039937;28;20044;-64
2023/01/06 00:38:25;;;;;;;3.22;1.70;;;;;;;10.75;100.00;101547.31;5037695;28;20037;-63
2023/01/06 00:40:50;;;;;;;3.28;1.50;;;;;;;10.73;100.00;101549.03;5036944;28;20045;-63
2023/01/06 00:43:16;;;;;;;1.83;1.48;;;;;;;10.73;100.00;101550.75;5039549;28;20037;-61
2023/01/06 00:45:41;;;;;;;2.63;1.38;;;;;;;10.72;100.00;101541.25;5041317;28;20766;-62
2023/01/06 00:48:07;;;;;;;2.30;1.38;;;;;;;10.70;100.00;101545.56;5040735;28;20568;-61
2023/01/06 00:50:32;;;;;;;2.03;1.20;;;;;;;10.69;100.00;101543.84;5046588;28;20033;-61
2023/01/06 00:52:57;;;;;;;2.90;1.20;;;;;;;10.69;100.00;101543.84;5031345;28;20848;-61
2023/01/06 00:55:23;;;;;;;2.35;1.15;;;;;;;10.68;100.00;101536.97;5034984;28;20076;-61
2023/01/06 00:57:51;;;;;;;2.50;1.30;;;;;;;10.68;100.00;101532.63;5038059;28;20486;-63
2023/01/06 01:00:17;;;;;;;3.42;1.70;;;;;;;10.68;100.00;101526.63;5036654;28;20041;-62
2023/01/06 01:02:42;;;;;;;2.13;0.93;;;;;;;10.66;100.00;101529.19;5033215;28;20774;-62
2023/01/06 01:05:08;;;;;;;2.25;1.40;;;;;;;10.65;100.00;101529.19;5038313;28;20137;-63
2023/01/06 01:07:33;;;;;;;3.30;1.48;;;;;;;10.64;100.00;101528.31;5036475;28;20045;-62
2023/01/06 01:09:59;;;;;;;2.42;1.40;;;;;;;10.64;100.00;101536.09;5038267;28;20044;-62
2023/01/06 01:12:24;;;;;;;3.45;1.20;;;;;;;10.63;100.00;101534.34;5037884;28;20040;-62
2023/01/06 01:14:52;;;;;;;3.78;1.50;;;;;;;10.62;100.00;101526.59;5039204;28;20045;-63
2023/01/06 01:17:23;;;;;;;2.25;1.35;;;;;;;10.61;100.00;101535.19;5037053;28;20052;-63
2023/01/06 01:19:50;;;;;;;3.05;1.50;;;;;;;10.58;100.00;101532.59;5036912;28;20091;-62
2023/01/06 01:22:16;;;;;;;3.28;1.80;;;;;;;10.56;100.00;101532.63;5036763;28;20035;-62
2023/01/06 01:24:42;;;;;;;5.28;1.70;;;;;;;10.54;100.00;101528.25;5034915;28;20036;-62
2023/01/06 01:27:08;;;;;;;3.67;1.50;;;;;;;10.52;100.00;101527.41;5036822;28;20047;-63
2023/01/06 01:29:33;;;;;;;1.80;1.08;;;;;;;10.52;100.00;101517.06;5037654;28;20502;-62
2023/01/06 01:31:59;;;;;;;4.28;1.52;;;;;;;10.50;100.00;101523.97;5036247;28;20041;-62
2023/01/06 01:34:25;;;;;;;2.53;1.40;;;;;;;10.49;100.00;101519.63;5038629;28;20033;-63
2023/01/06 01:36:52;;;;;;;2.08;1.10;;;;;;;10.47;100.00;101521.38;5039171;28;20029;-63
2023/01/06 01:39:20;;;;;;;4.15;1.67;;;;;;;10.44;100.00;101517.06;5038282;28;20087;-62
2023/01/06 01:41:46;;;;;;;3.60;1.45;;;;;;;10.41;100.00;101522.22;5036256;28;20040;-62
2023/01/06 01:44:49;;;;;;;3.45;1.50;;;;;;;10.40;100.00;101524.78;5036780;28;20052;-62
2023/01/06 01:47:32;;;;;;;5.78;1.58;;;;;;;10.39;100.00;101510.97;5038671;28;20068;-62
2023/01/06 01:50:04;;;;;;;2.03;1.30;;;;;;;10.38;100.00;101511.84;5033246;28;20131;-62
2023/01/06 01:52:32;;;;;;;3.45;1.52;;;;;;;10.37;100.00;101512.69;5033447;28;20037;-62
2023/01/06 01:54:58;;;;;;;2.67;1.42;;;;;;;10.37;100.00;101519.59;5031237;28;20021;-62
2023/01/06 01:57:35;;;;;;;2.88;1.42;;;;;;;10.36;100.00;101523.88;5033599;28;20063;-62
2023/01/06 02:00:04;;;;;;;2.38;1.33;;;;;;;10.35;100.00;101514.44;5032040;28;20033;-63
2023/01/06 02:02:31;;;;;;;1.83;1.30;;;;;;;10.36;100.00;101523.88;5036032;28;20040;-63
2023/01/06 02:04:56;;;;;;;2.35;1.20;;;;;;;10.37;100.00;101529.91;5037933;28;20037;-63
2023/01/06 02:07:25;;;;;;;3.97;1.30;;;;;;;10.38;100.00;101536.84;5037873;28;20051;-62
2023/01/06 02:10:09;;;;;;;4.40;1.33;;;;;;;10.37;100.00;101535.09;5039302;28;20126;-62
2023/01/06 02:12:35;;;;;;;3.88;1.25;;;;;;;10.36;100.00;101529.06;5033235;28;20051;-62
2023/01/06 02:15:01;;;;;;;2.00;1.40;;;;;;;10.37;100.00;101525.63;5035298;28;20768;-62
2023/01/06 02:17:38;;;;;;;1.92;1.08;;;;;;;10.38;99.38;101529.06;5035866;28;20032;-62
2023/01/06 02:20:40;;;;;;;8.57;1.60;;;;;;;10.37;99.08;101520.44;5033300;28;20429;-62
2023/01/06 02:23:34;;;;;;;5.07;1.38;;;;;;;10.35;99.06;101513.56;5035580;28;20056;-63
2023/01/06 02:26:21;;;;;;;2.20;1.10;;;;;;;10.35;98.99;101517.00;5036158;28;20147;-63
2023/01/06 02:28:52;;;;;;;2.40;1.15;;;;;;;10.35;98.84;101514.44;5034973;28;20063;-62
2023/01/06 02:31:45;;;;;;;3.38;1.15;;;;;;;10.35;98.81;101510.97;5056621;28;20036;-62
2023/01/06 02:34:25;;;;;;;4.25;1.70;;;;;;;10.34;98.23;101496.31;5029380;28;20024;-63
2023/01/06 02:37:19;;;;;;;3.22;1.40;;;;;;;10.34;99.06;101488.56;5034271;28;20021;-62
2023/01/06 02:39:56;;;;;;;2.58;1.55;;;;;;;10.33;98.92;101490.28;5053800;28;20639;-63
2023/01/06 02:42:44;;;;;;;7.85;1.77;;;;;;;10.32;98.21;101482.53;5058314;28;20102;-62
2023/01/06 02:45:17;;;;;;;4.65;1.52;;;;;;;10.32;98.19;101479.94;5056728;28;20599;-62
2023/01/06 02:47:55;;;;;;;3.85;1.75;;;;;;;10.31;98.29;101481.66;5054755;28;20075;-62
2023/01/06 02:50:35;;;;;;;5.15;1.30;;;;;;;10.30;97.55;101474.75;5055274;28;20075;-63
2023/01/06 02:53:14;;;;;;;3.63;1.30;;;;;;;10.29;97.84;101472.19;5055101;28;20155;-62
2023/01/06 02:55:47;;;;;;;6.82;1.52;;;;;;;10.28;97.17;101470.44;5052730;28;20086;-62
2023/01/06 02:58:24;;;;;;;3.25;1.08;;;;;;;10.27;96.12;101461.00;5051879;28;20082;-62
2023/01/06 03:00:56;;;;;;;4.70;1.08;;;;;;;10.27;95.54;101448.06;5055213;28;20028;-62
2023/01/06 03:03:25;;;;;;;6.47;1.15;;;;;;;10.28;95.65;101454.94;5058538;28;20041;-62
2023/01/06 03:05:57;;;;;;;4.07;1.33;;;;;;;10.27;94.86;101468.75;5056556;28;20040;-62
2023/01/06 03:08:26;;;;;;;3.85;1.00;;;;;;;10.27;95.13;101471.31;5058646;28;20036;-62
2023/01/06 03:10:53;;;;;;;2.22;0.98;;;;;;;10.25;95.26;101476.47;5055876;28;20123;-62
2023/01/06 03:13:28;;;;;;;2.22;1.10;;;;;;;10.25;95.37;101476.47;5058579;28;20029;-62
2023/01/06 03:15:54;;;;;;;3.20;1.08;;;;;;;10.24;95.18;101467.84;5057492;28;20481;-62
2023/01/06 03:18:19;;;;;;;4.68;0.90;;;;;;;10.23;94.76;101466.16;5055556;28;20090;-62
2023/01/06 03:20:48;;;;;;;2.90;1.13;;;;;;;10.23;95.06;101470.44;5059122;28;20090;-62
2023/01/06 03:23:14;;;;;;;4.03;1.00;;;;;;;10.22;94.72;101468.72;5053878;28;20674;-62
2023/01/06 03:25:39;;;;;;;2.72;0.93;;;;;;;10.21;95.22;101461.81;5041006;28;20039;-62
2023/01/06 03:28:05;;;;;;;3.88;0.93;;;;;;;10.21;95.08;101454.06;5055148;28;20140;-63
2023/01/06 03:30:41;;;;;;;5.35;1.00;;;;;;;10.20;94.42;101460.97;5058986;28;20040;-63
2023/01/06 03:33:32;;;;;;;6.28;1.00;;;;;;;10.20;94.60;101460.09;5056308;28;20040;-63
2023/01/06 03:36:20;;;;;;;3.78;1.00;;;;;;;10.20;93.81;101460.09;5060082;28;20155;-63
2023/01/06 03:39:04;;;;;;;2.28;1.13;;;;;;;10.19;94.27;101471.28;5054895;28;20094;-64
2023/01/06 03:44:31;;;;;;;1.70;0.85;;;;;;;10.17;94.75;101463.53;5056741;28;20051;-59
2023/01/06 03:47:06;;;;;;;3.13;0.90;;;;;;;10.21;94.07;101460.09;5041502;28;20400;-59
2023/01/06 03:49:41;;;;;;;4.75;0.82;;;;;;;10.19;94.41;101460.94;5058581;28;20051;-59
2023/01/06 03:52:33;;;;;;;;;;;;;;;10.20;94.38;101460.09;5056381;28;20052;-61
2023/01/06 03:55:05;;;;;;;3.30;0.90;;;;;;;10.20;93.30;101455.78;5049056;28;19974;-59
2023/01/06 03:57:35;;;;;;;3.42;0.90;;;;;;;10.20;94.47;101454.94;5054747;28;20040;-59
2023/01/06 04:00:17;;;;;;;3.55;1.55;;;;;;;10.18;93.77;101447.16;5056436;28;20037;-59
2023/01/06 04:02:44;;;;;;;3.65;1.25;;;;;;;10.20;93.96;101444.59;5054714;28;20764;-66
2023/01/06 04:05:15;;;;;;;5.40;0.95;;;;;;;10.20;94.39;101449.75;5057064;28;20044;-66
2023/01/06 04:07:42;;;;;;;5.70;1.10;;;;;;;10.19;94.49;101448.91;5053861;28;20110;-59
2023/01/06 04:10:09;;;;;;;2.00;0.80;;;;;;;10.20;94.23;101449.75;5056621;28;20032;-60
2023/01/06 04:12:37;;;;;;;1.35;0.73;;;;;;;10.19;94.26;101456.66;5060900;28;20032;-62
2023/01/06 04:15:04;;;;;;;1.83;0.70;;;;;;;10.19;94.61;101454.06;5058608;28;20032;-62
2023/01/06 04:17:29;;;;;;;5.63;1.08;;;;;;;10.20;93.70;101452.34;5058707;28;20041;-59
2023/01/06 04:19:55;;;;;;;2.58;0.80;;;;;;;10.20;93.88;101442.00;5058148;28;20050;-59
2023/01/06 04:22:20;;;;;;;3.20;1.00;;;;;;;10.19;93.21;101437.69;5054745;28;20044;-59
2023/01/06 04:24:45;;;;;;;1.40;0.73;;;;;;;10.24;91.29;101425.66;5056266;28;20052;-59
2023/01/06 04:27:11;;;;;;;9.27;1.88;;;;;;;10.23;91.84;101429.09;5059381;28;20078;-59
2023/01/06 04:29:36;;;;;;;3.97;1.08;;;;;;;10.23;92.27;101440.31;5057114;28;20062;-59
2023/01/06 04:32:02;;;;;;;0.82;0.63;;;;;;;10.21;91.40;101439.41;5059051;28;20041;-59
2023/01/06 04:34:27;;;;;;;1.77;0.88;;;;;;;10.20;91.42;101434.25;5058536;28;20033;-59
2023/01/06 04:36:52;;;;;;;1.70;0.73;;;;;;;10.20;91.55;101426.50;5054051;28;20060;-59
2023/01/06 04:39:18;;;;;;;2.47;0.93;;;;;;;10.21;91.20;101430.78;5058271;28;20074;-59
2023/01/06 04:41:46;;;;;;;2.75;0.82;;;;;;;10.20;90.68;101427.38;5057862;28;20075;-62
2023/01/06 04:44:11;;;;;;;3.17;0.70;;;;;;;10.21;90.15;101425.63;5058038;28;20064;-62
2023/01/06 04:46:36;;;;;;;2.13;0.95;;;;;;;10.22;89.59;101429.94;5055933;28;20123;-63
2023/01/06 04:49:02;;;;;;;2.67;0.75;;;;;;;10.23;88.83;101419.63;5059898;28;20028;-62
2023/01/06 04:51:27;;;;;;;4.13;0.68;;;;;;;10.26;88.35;101415.34;5059259;28;20040;-62
2023/01/06 04:53:53;;;;;;;1.33;0.70;;;;;;;10.27;87.34;101404.16;5039151;28;20032;-62
2023/01/06 04:56:18;;;;;;;1.58;0.73;;;;;;;10.33;85.49;101396.41;5019518;28;20044;-61
2023/01/06 04:58:43;;;;;;;4.90;1.70;;;;;;;10.30;86.96;101397.25;5035775;28;20037;-62
2023/01/06 05:01:11;;;;;;;2.58;1.00;;;;;;;10.29;87.04;101407.59;5038128;28;20043;-62
2023/01/06 05:03:37;;;;;;;4.43;1.30;;;;;;;10.26;87.38;101408.44;5030767;28;20152;-62
2023/01/06 05:06:05;;;;;;;2.72;1.05;;;;;;;10.27;87.03;101401.56;5034956;28;20069;-62
2023/01/06 05:08:31;;;;;;;2.60;1.00;;;;;;;10.27;86.49;101399.81;5047716;28;20051;-63
2023/01/06 05:11:20;;;;;;;4.18;1.20;;;;;;;10.29;86.64;101389.50;5050572;28;20033;-62
2023/01/06 05:13:46;;;;;;;3.95;1.15;;;;;;;10.33;85.91;101393.84;5036195;28;20544;-62
2023/01/06 05:16:14;;;;;;;3.50;1.50;;;;;;;10.34;85.45;101391.25;5032197;28;20037;-63
2023/01/06 05:18:40;;;;;;;1.40;0.70;;;;;;;10.33;86.01;101393.84;5038396;28;20028;-63
2023/01/06 05:21:06;;;;;;;1.15;0.63;;;;;;;10.30;86.31;101396.41;5037467;28;20037;-62
2023/01/06 05:23:31;;;;;;;2.00;0.68;;;;;;;10.28;86.25;101395.53;5034400;28;20049;-62
2023/01/06 05:25:56;;;;;;;1.45;0.80;;;;;;;10.26;85.66;101395.53;5032857;28;20033;-62
2023/01/06 05:28:22;;;;;;;4.93;1.10;;;;;;;10.26;86.21;101394.66;5037421;28;20140;-62
2023/01/06 05:30:48;;;;;;;2.38;0.90;;;;;;;10.31;84.41;101390.38;5035685;28;20115;-63
2023/01/06 05:33:14;;;;;;;5.13;0.70;;;;;;;10.35;84.97;101400.72;5033219;28;20041;-62
2023/01/06 05:35:39;;;;;;;3.13;0.70;;;;;;;10.33;85.15;101402.41;5038192;28;20449;-58
2023/01/06 05:38:04;;;;;;;3.30;0.90;;;;;;;10.33;85.67;101393.84;5033698;28;20094;-59
2023/01/06 05:40:30;;;;;;;3.88;0.70;;;;;;;10.34;85.34;101398.13;5037122;28;20036;-62
2023/01/06 05:42:56;;;;;;;2.22;0.70;;;;;;;10.35;84.24;101390.38;5033867;28;20477;-62
2023/01/06 05:45:23;;;;;;;2.55;0.82;;;;;;;10.36;84.52;101392.09;5035102;28;20033;-62
2023/01/06 05:47:48;;;;;;;1.85;0.75;;;;;;;10.36;85.11;101393.81;5034237;28;20631;-59
2023/01/06 05:50:13;;;;;;;5.65;1.27;;;;;;;10.34;85.23;101395.53;5036269;28;20647;-59
2023/01/06 05:52:39;;;;;;;3.13;1.60;;;;;;;10.35;84.57;101392.97;5034672;28;20458;-59
2023/01/06 05:55:05;;;;;;;2.28;0.80;;;;;;;10.39;83.22;101386.94;5036662;28;20036;-59
2023/01/06 05:57:34;;;;;;;1.02;0.80;;;;;;;10.41;83.35;101386.94;5033573;28;20060;-63
2023/01/06 06:00:00;;;;;;;1.63;0.57;;;;;;;10.40;83.69;101398.13;5036956;28;20096;-63
2023/01/06 06:02:26;;;;;;;3.33;0.70;;;;;;;10.39;83.43;101397.28;5030703;28;20520;-66
2023/01/06 06:04:51;;;;;;;3.67;0.75;;;;;;;10.41;82.40;101394.69;5043048;28;20044;-65
2023/01/06 06:07:17;;;;;;;1.60;0.80;;;;;;;10.43;82.28;101401.59;5052272;28;20037;-65
2023/01/06 06:09:42;;;;;;;2.92;0.90;;;;;;;10.44;82.91;101403.34;5036929;28;20029;-66
2023/01/06 06:12:07;;;;;;;1.50;0.82;;;;;;;10.43;82.96;101406.75;5036359;28;20750;-66
2023/01/06 06:14:33;;;;;;;2.15;0.70;;;;;;;10.43;83.31;101403.31;5027940;28;20064;-66
2023/01/06 06:16:58;;;;;;;2.20;0.77;;;;;;;10.44;82.56;101400.75;5036026;28;20129;-66
2023/01/06 06:19:24;;;;;;;1.15;0.70;;;;;;;10.43;82.13;101401.59;5036544;28;20094;-66
2023/01/06 06:21:49;;;;;;;0.63;0.50;;;;;;;10.45;81.97;101399.88;5037737;28;20026;-66
2023/01/06 06:24:14;;;;;;;3.58;0.70;;;;;;;10.48;81.65;101401.59;5037583;28;20706;-66
2023/01/06 06:26:40;;;;;;;2.20;0.50;;;;;;;10.49;81.88;101396.44;5037978;28;20033;-67
2023/01/06 06:29:06;;;;;;;0.85;0.60;;;;;;;10.49;81.80;101403.31;5036256;28;20620;-67
2023/01/06 06:31:32;;;;;;;2.03;1.20;;;;;;;10.47;81.53;101407.66;5036464;28;20033;-67
2023/01/06 06:33:59;;;;;;;5.40;0.90;;;;;;;10.49;81.87;101403.31;5039501;28;20044;-67
2023/01/06 06:36:26;;;;;;;2.70;0.60;;;;;;;10.50;82.09;101412.81;5034708;28;20506;-67
2023/01/06 06:38:52;;;;;;;1.90;1.15;;;;;;;10.53;81.25;101418.00;5040277;28;20045;-67
2023/01/06 06:41:18;;;;;;;0.70;0.52;;;;;;;10.54;81.42;101411.94;5035937;28;20037;-67
2023/01/06 06:43:44;;;;;;;2.42;0.80;;;;;;;10.56;81.62;101418.00;5035278;28;20513;-66
2023/01/06 06:46:09;;;;;;;2.20;0.60;;;;;;;10.57;80.58;101412.81;5034963;28;20035;-64
2023/01/06 06:48:35;;;;;;;1.92;0.65;;;;;;;10.56;81.07;101408.53;5034964;28;20021;-64
2023/01/06 06:51:04;;;;;;;1.25;0.70;;;;;;;10.55;80.99;101417.13;5036344;28;20132;-65
2023/01/06 06:53:29;;;;;;;1.13;0.50;;;;;;;10.55;81.28;101414.56;5035083;28;20521;-64
2023/01/06 06:55:55;;;;;;;2.35;0.60;;;;;;;10.52;82.09;101411.97;5037901;28;20037;-65
2023/01/06 06:58:21;;;;;;;1.10;0.57;;;;;;;10.55;81.19;101400.75;5037761;28;20025;-65
2023/01/06 07:00:46;;;;;;;1.88;0.60;;;;;;;10.57;81.23;101405.06;5057569;28;20078;-65
2023/01/06 07:03:12;;;;;;;2.08;0.70;;;;;;;10.59;80.44;101399.91;5026166;28;20796;-66
2023/01/06 07:05:38;;;;;;;1.00;0.52;;;;;;;10.59;80.13;101402.50;5035832;28;20215;-64
2023/01/06 07:08:04;;;;;;;2.15;0.60;;;;;;;10.57;81.32;101406.78;5036220;28;20158;-64
2023/01/06 07:10:29;;;;;;;3.17;0.98;;;;;;;10.56;81.14;101405.06;5033154;28;20037;-64
2023/01/06 07:12:54;;;;;;;1.75;0.80;;;;;;;10.59;81.24;101407.66;5031252;28;20029;-64
2023/01/06 07:15:20;;;;;;;4.85;0.60;;;;;;;10.59;81.04;101403.38;5034473;28;20047;-65
2023/01/06 07:17:45;;;;;;;1.98;0.60;;;;;;;10.61;81.01;101411.09;5038017;28;20040;-64
2023/01/06 07:20:11;;;;;;;3.65;1.02;;;;;;;10.61;80.85;101414.56;5040342;28;20037;-64
2023/01/06 07:22:39;;;;;;;2.90;0.82;;;;;;;10.62;81.37;101408.50;5038015;28;20091;-64
2023/01/06 07:25:06;;;;;;;5.93;1.40;;;;;;;10.64;80.47;101398.19;5037271;28;20040;-61
2023/01/06 07:27:31;;;;;;;3.40;0.70;;;;;;;10.62;81.08;101405.94;5035175;28;20075;-61
2023/01/06 07:29:56;;;;;;;2.50;0.98;;;;;;;10.61;81.49;101414.56;5038968;28;20036;-61
2023/01/06 07:32:22;;;;;;;3.13;0.70;;;;;;;10.59;81.83;101408.53;5038279;28;20131;-61
2023/01/06 07:34:47;;;;;;;1.42;0.60;;;;;;;10.61;81.55;101406.81;5042685;28;20777;-66
2023/01/06 07:37:12;;;;;;;2.40;0.75;;;;;;;10.63;81.68;101397.31;5045959;28;20068;-63
2023/01/06 07:39:38;;;;;;;1.30;0.88;;;;;;;10.65;81.60;101393.00;5046856;28;20695;-66
2023/01/06 07:42:06;;;;;;;4.65;0.70;;;;;;;10.66;80.63;101384.41;5058217;28;20033;-66
2023/01/06 07:44:31;;;;;;;1.17;0.60;;;;;;;10.67;80.94;101382.69;5057572;28;20767;-66
2023/01/06 07:46:57;;;;;;;1.90;0.63;;;;;;;10.65;81.59;101374.06;5053810;28;20033;-66
2023/01/06 07:49:22;;;;;;;2.25;0.65;;;;;;;10.68;81.45;101374.06;5053415;28;20032;-66
2023/01/06 07:51:47;;;;;;;2.05;0.77;;;;;;;10.72;81.04;101376.66;5051755;28;20044;-61
2023/01/06 07:54:13;;;;;;;3.13;0.70;;;;;;;10.73;81.09;101382.69;5053380;28;20116;-61
2023/01/06 07:56:38;;;;;;;2.42;1.00;;;;;;;10.76;81.26;101377.53;5056882;28;20112;-66
2023/01/06 07:59:03;;;;;;;1.38;0.75;;;;;;;10.77;81.13;101374.91;5051625;28;20041;-66
2023/01/06 08:01:29;;;;;;;1.35;0.60;;;;;;;10.79;81.07;101373.22;5056960;28;20040;-64
2023/01/06 08:03:54;;;;;;;1.15;0.63;;;;;;;10.82;80.74;101377.53;5057284;28;20455;-63
2023/01/06 08:06:19;;;;;;;2.30;0.75;;;;;;;10.85;80.80;101371.47;5060076;28;20040;-63
2023/01/06 08:08:45;;;;;;;2.47;0.90;;;;;;;10.87;81.55;101378.38;5054279;28;20044;-63
2023/01/06 08:11:12;;;;;;;1.52;0.60;;;;;;;10.89;80.56;101366.28;5050022;28;20032;-64
2023/01/06 08:13:38;;;;;;;1.17;0.75;;;;;;;10.92;80.69;101373.22;5057281;28;20036;-64
2023/01/06 08:16:07;;;;;;;5.13;0.77;;;;;;;10.90;80.86;101380.97;5057258;28;20044;-63
2023/01/06 08:18:33;;;;;;;3.50;0.68;;;;;;;10.92;81.26;101380.97;5057470;28;20053;-64
2023/01/06 08:21:04;;;;;;;1.02;0.60;;;;;;;10.92;81.53;101373.22;5049605;28;20552;-64
2023/01/06 08:23:30;;;;;;;1.42;0.73;;;;;;;10.96;80.26;101373.22;5052400;28;20103;-64
2023/01/06 08:26:12;;;;;;;1.40;0.70;;;;;;;11.00;80.18;101377.53;5051421;28;20032;-64
2023/01/06 08:28:38;;;;;;;0.50;0.43;;;;;;;11.04;80.36;101386.16;5054603;28;20037;-64
2023/01/06 08:31:03;;;;;;;3.30;0.80;;;;;;;11.06;79.98;101387.88;5053639;28;20036;-63
2023/01/06 08:33:29;;;;;;;0.80;0.60;;;;;;;11.08;80.35;101391.31;5053819;28;20034;-63
2023/01/06 08:35:59;;;;;;;1.05;0.50;;;;;;;11.11;80.07;101388.72;5050191;28;20039;-63
2023/01/06 08:38:25;;;;;;;1.65;0.60;;;;;;;11.11;80.01;101386.13;5051442;28;20044;-64
2023/01/06 08:40:52;;;;;;;2.92;0.98;;;;;;;11.13;80.07;101397.34;5045880;28;20050;-63
2023/01/06 08:43:17;;;;;;;0.70;0.50;;;;;;;11.14;79.94;101399.06;5049632;28;20037;-64
2023/01/06 08:45:43;;;;;;;1.00;0.30;;;;;;;11.14;81.13;101406.84;5056628;28;20086;-64
2023/01/06 08:48:08;;;;;;;1.38;0.50;;;;;;;11.15;80.69;101408.56;5051355;28;20040;-65
2023/01/06 08:50:33;;;;;;;0.30;0.30;;;;;;;11.18;80.12;101405.97;5058877;28;20048;-66
2023/01/06 08:52:59;;;;;;;1.75;0.40;;;;;;;11.22;79.76;101410.28;5056903;28;20040;-65
2023/01/06 08:55:24;;;;;;;0.57;0.40;;;;;;;11.26;79.76;101403.38;5059383;28;20485;-65
2023/01/06 08:57:50;;;;;;;1.10;0.50;;;;;;;11.32;79.69;101408.53;5060501;28;20098;-65
2023/01/06 09:00:16;;;;;;;0.75;0.50;;;;;;;11.35;79.58;101413.72;5062454;28;20559;-65
2023/01/06 09:02:42;;;;;;;1.45;0.40;;;;;;;11.41;79.06;101415.44;5060243;28;20048;-65
2023/01/06 09:05:08;;;;;;;0.82;0.50;;;;;;;11.43;79.44;101419.75;5056666;28;20044;-65
2023/01/06 09:07:33;;;;;;;0.85;0.38;;;;;;;11.45;78.94;101424.97;5056321;28;20043;-65
2023/01/06 09:09:59;;;;;;;1.05;0.50;;;;;;;11.47;78.89;101431.00;5061442;28;20032;-65
2023/01/06 09:12:24;;;;;;;0.85;0.30;;;;;;;11.47;79.00;101431.00;5055702;28;20048;-64
2023/01/06 09:14:49;;;;;;;0.60;0.40;;;;;;;11.49;79.29;101424.06;5055605;28;20051;-64
2023/01/06 09:17:15;;;;;;;0.93;0.40;;;;;;;11.50;78.83;101426.66;5053770;28;20157;-65
2023/01/06 09:19:40;;;;;;;0.95;0.40;;;;;;;11.53;79.00;101433.56;5057483;28;20040;-66
2023/01/06 09:22:06;;;;;;;0.45;0.32;;;;;;;11.60;78.67;101443.06;5057479;28;20032;-66
2023/01/06 09:24:31;;;;;;;0.30;0.30;;;;;;;11.67;78.83;101445.63;5056226;28;20706;-64
2023/01/06 09:26:57;;;;;;;0.43;0.40;;;;;;;11.72;78.82;101443.03;5055407;28;20045;-63
2023/01/06 09:29:22;;;;;;;0.20;0.20;;;;;;;11.79;78.72;101445.59;5055173;28;20052;-66
2023/01/06 09:31:47;;;;;;;1.67;0.50;;;;;;;11.85;78.74;101452.47;5057389;28;20123;-66
2023/01/06 09:34:13;;;;;;;1.50;0.40;;;;;;;11.94;78.06;101444.69;5060585;28;20528;-66
2023/01/06 09:36:38;;;;;;;1.55;0.55;;;;;;;12.02;77.57;101445.50;5055009;28;20036;-65
2023/01/06 09:39:04;;;;;;;0.30;0.30;;;;;;;12.04;77.73;101448.13;5059909;28;20036;-65
2023/01/06 09:41:50;;;;;;;0.80;0.43;;;;;;;12.07;78.35;101458.47;5059521;28;20044;-66
2023/01/06 09:44:29;;;;;;;0.90;0.30;;;;;;;12.09;78.49;101451.53;5055708;28;20136;-65
2023/01/06 09:46:57;;;;;;;0.40;0.32;;;;;;;12.13;78.52;101456.72;5058046;28;20148;-66
2023/01/06 09:49:44;;;;;;;0.60;0.30;;;;;;;12.16;78.49;101446.34;5059688;28;20035;-65
2023/01/06 09:52:33;;;;;;;1.67;0.47;;;;;;;12.16;78.47;101454.13;5052840;28;20032;-67
2023/01/06 09:55:07;;;;;;;1.42;0.40;;;;;;;12.12;79.34;101459.31;5046719;28;20041;-65
2023/01/06 09:57:39;;;;;;;0.65;0.35;;;;;;;12.16;79.61;101451.53;5041633;28;20037;-66
2023/01/06 10:00:31;;;;;;;1.40;0.30;;;;;;;12.28;79.00;101461.84;5057647;28;20079;-65
2023/01/06 10:02:56;;;;;;;0.30;0.30;;;;;;;12.36;78.35;101457.50;5057628;28;20041;-66
2023/01/06 10:05:30;;;;;;;0.50;0.40;;;;;;;12.46;77.71;101448.78;5056291;28;20946;-66
2023/01/06 10:08:25;;;;;;;2.33;0.50;;;;;;;12.51;77.22;101447.91;5055706;28;20045;-65
2023/01/06 10:11:27;;;;;;;0.32;0.30;;;;;;;12.57;76.69;101440.09;5045704;28;20477;-64
2023/01/06 10:13:59;;;;;;;0.75;0.40;;;;;;;12.64;76.83;101439.19;5056572;28;20570;-66
2023/01/06 10:16:49;;;;;;;0.20;0.20;;;;;;;12.72;76.40;101434.81;5051057;28;20516;-65
2023/01/06 10:19:44;;;;;;;0.45;0.30;;;;;;;12.82;75.53;101437.31;5052773;28;20032;-64
2023/01/06 10:22:22;;;;;;;0.50;0.35;;;;;;;12.90;75.27;101438.16;5049138;28;20028;-66
2023/01/06 10:25:05;;;;;;;1.40;0.40;;;;;;;12.95;75.20;101448.47;5055781;28;20028;-65
2023/01/06 10:27:36;;;;;;;2.17;0.73;;;;;;;13.00;75.28;101442.41;5053037;28;20048;-65
2023/01/06 10:30:06;;;;;;;0.73;0.30;;;;;;;13.00;73.95;101433.75;5051015;28;20048;-64
2023/01/06 10:32:33;;;;;;;0.40;0.40;;;;;;;12.97;74.01;101437.22;5059965;28;20800;-65
2023/01/06 10:34:59;;;;;;;0.30;0.30;;;;;;;12.97;74.10;101444.13;5042635;28;20032;-66
2023/01/06 10:37:33;;;;;;;0.20;0.20;;;;;;;12.95;74.48;101446.75;5060706;28;20870;-65
2023/01/06 10:40:29;;;;;;;0.77;0.40;;;;;;;12.97;74.82;101441.53;5057527;28;20181;-66
2023/01/06 10:42:54;;;;;;;;;;;;;;;12.97;74.93;101444.13;5041804;28;20053;-65
2023/01/06 10:45:40;;;;;;;0.32;0.30;;;;;;;13.00;74.99;101446.75;5058793;28;19967;-64
2023/01/06 10:48:14;;;;;;;0.30;0.30;;;;;;;13.03;74.77;101444.13;5053179;28;20056;-61
2023/01/06 10:50:40;;;;;;;0.98;0.22;;;;;;;13.08;75.09;101446.69;5040323;28;20527;-61
2023/01/06 10:53:06;;;;;;;0.28;0.28;;;;;;;13.13;75.30;101450.09;5056510;28;20032;-62
2023/01/06 10:55:49;;;;;;;0.30;0.30;;;;;;;13.14;74.46;101442.31;5051920;28;21165;-62
2023/01/06 10:58:41;;;;;;;0.68;0.30;;;;;;;13.17;74.65;101444.91;5052856;28;20039;-61
2023/01/06 11:01:06;;;;;;;0.82;0.30;;;;;;;13.17;75.02;101446.63;5055779;28;20032;-61
2023/01/06 11:03:32;;;;;;;1.13;0.22;;;;;;;13.12;74.86;101451.00;5058310;28;20040;-61
2023/01/06 11:06:05;;;;;;;0.75;0.40;;;;;;;13.05;75.96;101463.16;5051896;28;20067;-64
2023/01/06 11:08:32;;;;;;;1.88;0.30;;;;;;;12.93;77.77;101451.09;5054430;28;20055;-64
2023/01/06 11:10:58;;;;;;;0.30;0.20;;;;;;;12.82;79.40;101460.66;5057528;28;20094;-65
2023/01/06 11:13:30;;;;;;;0.45;0.20;;;;;;;12.65;79.89;101454.72;5054087;28;20405;-65
2023/01/06 11:16:05;;;;;;;0.20;0.20;;;;;;;12.66;80.03;101456.47;5058734;28;20027;-63
2023/01/06 11:18:32;;;;;;;0.40;0.40;;;;;;;12.73;79.72;101446.91;5054157;28;20044;-64
2023/01/06 11:21:10;;;;;;;1.02;0.30;;;;;;;12.80;79.54;101453.78;5054839;28;20048;-64
2023/01/06 11:23:38;;;;;;;0.20;0.20;;;;;;;12.79;78.99;101439.94;5057338;28;20044;-63
2023/01/06 11:26:13;;;;;;;1.88;0.35;;;;;;;12.91;78.89;101439.03;5047425;28;20028;-61
2023/01/06 11:28:39;;;;;;;1.38;0.40;;;;;;;13.00;78.16;101439.81;5031625;28;20048;-61
2023/01/06 11:31:18;;;;;;;1.30;0.40;;;;;;;13.12;78.25;101445.81;5038226;28;20029;-61
2023/01/06 11:33:56;;;;;;;0.95;0.43;;;;;;;13.15;77.12;101449.22;5036368;28;20040;-60
2023/01/06 11:36:24;;;;;;;0.32;0.28;;;;;;;13.08;76.65;101450.16;5034790;28;20044;-61
2023/01/06 11:39:29;;;;;;;0.90;0.40;;;;;;;13.10;76.55;101440.63;5036593;28;20540;-60